Time;durP1;ratioP1;P1;durP2;ratioP2;P2;SDS_P1;SDS_P2;PMS_P1;PMS_P2;Temp;Humidity;BMP_temperature;BMP_pressure;BME280_temperature;BME280_humidity;BME280_pressure;Samples;Min_cycle;Max_cycle;Signal;HPM_P1;HPM_P2
2022/08/13 00:00:34;;;;;;;1.97;1.87;;;24.90;38.30;;;;;;5031671;28;20439;-48
2022/08/13 00:03:01;;;;;;;2.50;2.20;;;24.80;38.40;;;;;;5034180;28;20432;-49
2022/08/13 00:05:27;;;;;;;2.13;1.93;;;24.80;38.60;;;;;;5033581;28;20427;-46
2022/08/13 00:07:53;;;;;;;2.07;1.80;;;24.70;38.60;;;;;;5034053;28;20467;-49
2022/08/13 00:10:30;;;;;;;2.30;2.10;;;24.70;38.60;;;;;;5033216;28;20510;-49
2022/08/13 00:13:03;;;;;;;4.10;2.13;;;24.60;38.70;;;;;;5032973;28;20840;-46
2022/08/13 00:15:43;;;;;;;3.87;1.93;;;24.60;38.70;;;;;;5033519;28;20432;-46
2022/08/13 00:18:12;;;;;;;3.17;1.97;;;24.60;38.80;;;;;;5033890;28;20931;-48
2022/08/13 00:20:43;;;;;;;2.07;1.63;;;24.50;38.70;;;;;;5032628;28;20428;-45
2022/08/13 00:23:14;;;;;;;2.60;2.00;;;24.50;38.70;;;;;;5034083;28;20467;-47
2022/08/13 00:25:40;;;;;;;2.10;1.90;;;24.30;38.80;;;;;;5033258;28;20440;-48
2022/08/13 00:28:06;;;;;;;2.33;1.97;;;24.40;38.90;;;;;;5032297;28;20763;-45
2022/08/13 00:30:36;;;;;;;3.13;2.10;;;24.30;38.90;;;;;;5032885;28;20506;-48
2022/08/13 00:33:22;;;;;;;2.70;2.50;;;24.10;39.90;;;;;;5033570;28;20428;-49
2022/08/13 00:35:50;;;;;;;1.87;1.77;;;24.00;40.30;;;;;;5033241;28;20888;-49
2022/08/13 00:38:28;;;;;;;2.50;1.90;;;23.80;41.00;;;;;;5033307;28;20468;-47
2022/08/13 00:41:00;;;;;;;4.13;2.13;;;23.70;41.80;;;;;;5033198;28;21049;-48
2022/08/13 00:43:33;;;;;;;3.07;2.57;;;23.70;41.20;;;;;;5033431;28;20431;-45
2022/08/13 00:46:00;;;;;;;2.27;1.97;;;23.60;41.50;;;;;;5033689;28;20458;-48
2022/08/13 00:48:46;;;;;;;2.73;2.20;;;23.60;41.70;;;;;;5033036;28;20485;-46
2022/08/13 00:51:16;;;;;;;2.60;2.40;;;23.60;41.70;;;;;;5033196;28;20487;-49
2022/08/13 00:53:43;;;;;;;2.70;2.50;;;23.50;42.20;;;;;;5030817;28;20443;-46
2022/08/13 00:56:10;;;;;;;2.23;2.03;;;23.50;42.10;;;;;;5032600;28;20475;-45
2022/08/13 00:58:36;;;;;;;2.40;2.20;;;23.40;42.00;;;;;;5028161;28;20424;-46
2022/08/13 01:01:04;;;;;;;2.00;1.90;;;23.50;41.90;;;;;;5027411;28;20479;-46
2022/08/13 01:03:32;;;;;;;2.63;1.97;;;23.40;42.00;;;;;;5027167;28;20527;-46
2022/08/13 01:06:01;;;;;;;2.10;2.00;;;23.30;42.90;;;;;;5029639;28;20482;-46
2022/08/13 01:08:34;;;;;;;2.40;2.20;;;23.10;42.70;;;;;;5032599;28;20784;-48
2022/08/13 01:11:07;;;;;;;2.07;1.97;;;23.10;42.70;;;;;;5032830;28;20495;-45
2022/08/13 01:13:34;;;;;;;1.80;1.70;;;23.20;42.50;;;;;;5032167;28;20494;-45
2022/08/13 01:16:02;;;;;;;2.00;1.90;;;23.20;42.40;;;;;;5032788;28;20428;-46
2022/08/13 01:18:29;;;;;;;2.63;2.20;;;23.30;42.30;;;;;;5032555;28;20443;-46
2022/08/13 01:21:00;;;;;;;3.03;1.90;;;23.30;42.30;;;;;;5030801;28;20454;-45
2022/08/13 01:23:30;;;;;;;2.23;2.13;;;23.30;42.60;;;;;;5032544;28;20440;-48
2022/08/13 01:25:59;;;;;;;2.73;2.53;;;23.10;43.40;;;;;;5032437;28;20482;-45
2022/08/13 01:28:30;;;;;;;2.10;1.83;;;23.10;42.90;;;;;;5032130;28;20962;-45
2022/08/13 01:31:04;;;;;;;2.30;2.10;;;23.10;43.00;;;;;;5032293;28;20476;-44
2022/08/13 01:33:30;;;;;;;1.90;1.80;;;23.00;42.90;;;;;;5031921;28;20477;-45
2022/08/13 01:35:58;;;;;;;2.17;2.00;;;23.00;42.90;;;;;;5032402;28;20466;-45
2022/08/13 01:38:26;;;;;;;2.00;1.90;;;23.00;43.30;;;;;;5031820;28;20472;-48
2022/08/13 01:40:52;;;;;;;2.40;2.20;;;22.80;43.60;;;;;;5031849;28;20440;-47
2022/08/13 01:43:18;;;;;;;2.03;1.93;;;22.80;43.80;;;;;;5032373;28;20814;-48
2022/08/13 01:45:45;;;;;;;2.50;2.00;;;22.80;43.60;;;;;;5031734;28;20420;-45
2022/08/13 01:50:55;;;;;;;2.00;1.90;;;22.80;43.30;;;;;;5031978;28;20506;-45
2022/08/13 01:53:20;;;;;;;3.23;2.40;;;22.80;43.30;;;;;;5031946;28;20425;-45
2022/08/13 01:55:54;;;;;;;3.00;2.70;;;22.90;43.20;;;;;;5031692;28;20212;-45
2022/08/13 01:58:22;;;;;;;5.60;3.67;;;22.90;43.20;;;;;;5031643;28;20185;-46
2022/08/13 02:00:52;;;;;;;3.40;3.10;;;22.80;43.20;;;;;;5031394;28;20440;-46
2022/08/13 02:03:19;;;;;;;3.60;2.93;;;22.80;43.30;;;;;;5031741;28;20427;-48
2022/08/13 02:05:47;;;;;;;2.83;2.63;;;22.70;43.60;;;;;;5031421;28;20455;-45
2022/08/13 02:08:14;;;;;;;1.90;1.80;;;22.70;43.50;;;;;;5030681;28;20531;-45
2022/08/13 02:10:41;;;;;;;2.50;2.37;;;22.70;43.60;;;;;;5030895;28;20471;-47
2022/08/13 02:13:11;;;;;;;2.07;1.97;;;22.70;43.60;;;;;;5031615;28;20526;-47
2022/08/13 02:15:38;;;;;;;2.40;2.23;;;22.70;43.80;;;;;;5029373;28;20432;-46
2022/08/13 02:18:04;;;;;;;3.00;2.70;;;22.60;44.00;;;;;;5031676;28;20427;-49
2022/08/13 02:20:37;;;;;;;2.37;2.10;;;22.60;44.00;;;;;;5030530;28;20443;-45
2022/08/13 02:23:06;;;;;;;2.33;2.03;;;22.40;44.40;;;;;;5031554;28;20499;-45
2022/08/13 02:25:34;;;;;;;2.87;2.30;;;22.40;44.50;;;;;;5031005;28;20503;-44
2022/08/13 02:28:00;;;;;;;2.57;2.37;;;22.40;44.60;;;;;;5031353;28;20834;-45
2022/08/13 02:30:27;;;;;;;5.40;2.77;;;22.40;44.50;;;;;;5030401;28;20478;-45
2022/08/13 02:32:54;;;;;;;2.50;2.30;;;22.30;44.90;;;;;;5031471;28;20201;-47
2022/08/13 02:35:21;;;;;;;2.60;2.40;;;22.20;44.90;;;;;;5030818;28;20420;-46
2022/08/13 02:37:50;;;;;;;2.80;2.70;;;22.10;45.10;;;;;;5031404;28;20483;-46
2022/08/13 02:43:05;;;;;;;2.67;2.47;;;22.00;45.40;;;;;;5029644;28;20966;-47
2022/08/13 02:45:31;;;;;;;3.60;1.97;;;22.00;45.40;;;;;;5030793;28;20464;-46
2022/08/13 02:47:57;;;;;;;2.50;2.30;;;22.00;45.50;;;;;;5030974;28;20285;-45
2022/08/13 02:50:24;;;;;;;3.80;2.53;;;22.00;45.30;;;;;;5030385;28;20204;-46
2022/08/13 02:52:51;;;;;;;2.67;2.40;;;22.10;45.30;;;;;;5031237;28;20303;-47
2022/08/13 02:55:19;;;;;;;3.50;2.77;;;22.00;45.70;;;;;;5029297;28;20448;-45
2022/08/13 02:57:46;;;;;;;2.20;2.00;;;21.90;45.70;;;;;;5031114;28;20947;-45
2022/08/13 03:00:13;;;;;;;2.23;2.13;;;22.00;45.70;;;;;;5029934;28;20840;-45
2022/08/13 03:02:44;;;;;;;2.93;2.57;;;22.00;45.70;;;;;;5031061;28;20440;-45
2022/08/13 03:05:12;;;;;;;2.40;2.20;;;22.10;45.80;;;;;;5030466;28;20519;-45
2022/08/13 03:07:41;;;;;;;2.80;2.53;;;22.10;45.70;;;;;;5029122;28;20436;-47
2022/08/13 03:10:11;;;;;;;3.83;2.77;;;22.10;45.60;;;;;;5029788;28;20796;-45
2022/08/13 03:12:42;;;;;;;2.73;2.53;;;22.10;45.50;;;;;;5030674;28;20440;-45
2022/08/13 03:15:11;;;;;;;3.07;2.80;;;22.20;45.50;;;;;;5029677;28;20944;-45
2022/08/13 03:17:38;;;;;;;3.00;2.80;;;22.10;45.30;;;;;;5030837;28;20431;-45
2022/08/13 03:20:16;;;;;;;2.50;2.40;;;22.10;45.30;;;;;;5029757;28;20531;-45
2022/08/13 03:22:54;;;;;;;2.87;2.67;;;22.10;45.40;;;;;;5030696;28;21071;-45
2022/08/13 03:25:21;;;;;;;6.43;4.20;;;22.10;45.40;;;;;;5030116;28;20981;-47
2022/08/13 03:27:48;;;;;;;6.17;4.53;;;22.10;45.40;;;;;;5030961;28;20435;-45
2022/08/13 03:30:16;;;;;;;7.00;4.00;;;22.00;45.30;;;;;;5029544;28;20428;-45
2022/08/13 03:32:44;;;;;;;8.20;4.70;;;22.00;45.40;;;;;;5030619;28;20982;-47
2022/08/13 03:35:16;;;;;;;3.60;3.30;;;22.00;45.60;;;;;;5028508;28;20432;-45
2022/08/13 03:37:44;;;;;;;4.70;3.20;;;21.90;45.60;;;;;;5030690;28;21226;-46
2022/08/13 03:40:12;;;;;;;2.93;2.73;;;21.80;45.70;;;;;;5029412;28;20912;-48
2022/08/13 03:42:40;;;;;;;2.90;2.70;;;21.80;45.80;;;;;;5030544;28;20436;-45
2022/08/13 03:45:07;;;;;;;3.10;2.80;;;21.80;45.90;;;;;;5029896;28;20439;-45
2022/08/13 03:47:33;;;;;;;3.43;3.23;;;21.80;45.90;;;;;;5030549;28;20761;-45
2022/08/13 03:49:59;;;;;;;2.77;2.57;;;21.80;46.00;;;;;;5029606;28;20478;-45
2022/08/13 03:52:26;;;;;;;2.43;2.20;;;21.70;46.30;;;;;;5030278;28;20233;-45
2022/08/13 03:54:52;;;;;;;2.50;2.40;;;21.70;46.30;;;;;;5030008;28;20526;-46
2022/08/13 03:57:19;;;;;;;2.90;2.50;;;21.70;46.30;;;;;;5029222;28;20973;-46
2022/08/13 03:59:48;;;;;;;4.27;2.67;;;21.60;46.30;;;;;;5029247;28;20260;-44
2022/08/13 04:02:15;;;;;;;3.07;2.30;;;21.60;46.30;;;;;;5028776;28;20462;-45
2022/08/13 04:04:46;;;;;;;3.00;2.70;;;21.60;46.50;;;;;;5029767;28;20439;-44
2022/08/13 04:07:14;;;;;;;3.60;3.20;;;21.60;46.50;;;;;;5030394;28;20436;-44
2022/08/13 04:09:40;;;;;;;3.07;2.87;;;21.60;46.50;;;;;;5029128;28;20924;-45
2022/08/13 04:12:10;;;;;;;4.17;2.27;;;21.60;46.60;;;;;;5030185;28;20483;-45
2022/08/13 04:14:35;;;;;;;2.80;2.60;;;21.60;46.80;;;;;;5029747;28;20455;-44
2022/08/13 04:17:05;;;;;;;3.00;2.80;;;21.50;46.80;;;;;;5030534;28;20431;-45
2022/08/13 04:19:33;;;;;;;3.33;3.13;;;21.50;46.80;;;;;;5029386;28;20204;-44
2022/08/13 04:21:59;;;;;;;3.33;3.13;;;21.50;46.90;;;;;;5030065;28;20424;-46
2022/08/13 04:24:27;;;;;;;2.77;2.57;;;21.50;46.90;;;;;;5029620;28;20942;-45
2022/08/13 04:26:54;;;;;;;2.73;2.53;;;21.40;46.90;;;;;;5031212;28;20653;-45
2022/08/13 04:29:20;;;;;;;3.20;2.90;;;21.40;47.20;;;;;;5031035;28;20431;-44
2022/08/13 04:31:46;;;;;;;3.47;3.10;;;21.30;47.70;;;;;;5033842;28;20499;-45
2022/08/13 04:34:12;;;;;;;6.03;2.80;;;21.20;47.60;;;;;;5033273;28;20420;-45
2022/08/13 04:36:37;;;;;;;3.23;2.80;;;21.20;47.60;;;;;;5033637;28;20197;-45
2022/08/13 04:39:03;;;;;;;2.57;2.40;;;21.30;47.60;;;;;;5032585;28;20703;-45
2022/08/13 04:41:29;;;;;;;4.47;3.53;;;21.30;47.60;;;;;;5033581;28;20272;-49
2022/08/13 04:43:55;;;;;;;2.70;2.50;;;21.30;47.60;;;;;;5032718;28;20519;-49
2022/08/13 04:46:20;;;;;;;4.23;2.83;;;21.20;47.60;;;;;;5033506;28;20193;-46
2022/08/13 04:48:46;;;;;;;2.80;2.60;;;21.20;47.60;;;;;;5032356;28;20688;-46
2022/08/13 04:51:12;;;;;;;3.13;2.83;;;21.20;47.50;;;;;;5033207;28;20247;-45
2022/08/13 04:53:40;;;;;;;3.43;2.70;;;21.20;47.60;;;;;;5032694;28;20290;-47
2022/08/13 04:56:06;;;;;;;4.17;2.73;;;21.10;48.10;;;;;;5031506;28;20456;-45
2022/08/13 04:58:35;;;;;;;3.00;2.80;;;21.10;48.20;;;;;;5032324;28;20432;-44
2022/08/13 05:01:03;;;;;;;3.30;2.67;;;21.00;48.30;;;;;;5033202;28;20931;-46
2022/08/13 05:03:29;;;;;;;3.73;2.83;;;21.00;48.20;;;;;;5032943;28;20458;-45
2022/08/13 05:05:56;;;;;;;2.97;2.67;;;21.10;47.90;;;;;;5032652;28;20447;-45
2022/08/13 05:08:23;;;;;;;2.87;2.67;;;21.20;47.70;;;;;;5032427;28;20197;-46
2022/08/13 05:10:50;;;;;;;5.20;2.90;;;21.20;47.70;;;;;;5032343;28;20888;-48
2022/08/13 05:13:30;;;;;;;2.60;2.40;;;21.10;47.80;;;;;;5033007;28;20431;-45
2022/08/13 05:15:58;;;;;;;4.23;2.93;;;21.20;47.90;;;;;;5032639;28;20782;-45
2022/08/13 05:18:26;;;;;;;2.80;2.60;;;21.20;47.90;;;;;;5032243;28;20768;-46
2022/08/13 05:20:53;;;;;;;3.00;2.80;;;21.10;48.20;;;;;;5030682;28;20932;-46
2022/08/13 05:23:19;;;;;;;4.03;3.07;;;;;;;;;;5032712;28;20436;-45
2022/08/13 05:25:45;;;;;;;3.80;3.20;;;20.40;49.80;;;;;;5032227;28;20437;-49
2022/08/13 05:28:10;;;;;;;3.33;2.80;;;20.50;50.00;;;;;;5032135;28;20424;-49
2022/08/13 05:30:39;;;;;;;2.87;2.67;;;20.50;50.00;;;;;;5032001;28;20229;-45
2022/08/13 05:33:13;;;;;;;3.80;3.50;;;20.50;50.10;;;;;;5032642;28;20541;-47
2022/08/13 05:35:43;;;;;;;3.53;3.23;;;20.20;51.00;;;;;;5031851;28;20794;-45
2022/08/13 05:38:09;;;;;;;3.90;3.33;;;19.90;51.70;;;;;;5030951;28;20566;-49
2022/08/13 05:40:35;;;;;;;3.30;3.00;;;20.00;51.60;;;;;;5031781;28;20910;-50
2022/08/13 05:43:02;;;;;;;4.63;3.20;;;20.10;51.50;;;;;;5032609;28;20436;-47
2022/08/13 05:45:29;;;;;;;3.77;3.23;;;20.10;51.60;;;;;;5032033;28;20942;-45
2022/08/13 05:47:54;;;;;;;3.50;3.30;;;20.30;51.20;;;;;;5030489;28;20430;-46
2022/08/13 05:50:20;;;;;;;3.40;3.10;;;20.60;50.80;;;;;;5031321;28;20421;-47
2022/08/13 05:52:45;;;;;;;3.77;3.47;;;20.80;50.80;;;;;;5032315;28;20226;-47
2022/08/13 05:55:13;;;;;;;6.30;4.03;;;21.00;50.00;;;;;;5031568;28;20205;-45
2022/08/13 05:57:40;;;;;;;6.40;3.50;;;21.10;49.80;;;;;;5032076;28;20603;-48
2022/08/13 06:05:37;;;;;;;5.47;3.37;;;21.70;48.60;;;;;;5031383;28;20435;-48
2022/08/13 06:08:05;;;;;;;3.47;3.20;;;21.80;48.50;;;;;;5031362;28;20940;-48
2022/08/13 06:10:31;;;;;;;7.53;3.40;;;22.00;48.00;;;;;;5031397;28;20472;-44
2022/08/13 06:12:57;;;;;;;3.20;3.00;;;22.20;47.90;;;;;;5032118;28;20440;-45
2022/08/13 06:15:23;;;;;;;2.77;2.60;;;22.30;47.50;;;;;;5029738;28;20424;-47
2022/08/13 06:17:52;;;;;;;3.27;2.97;;;22.50;47.50;;;;;;5031449;28;20193;-45
2022/08/13 06:20:21;;;;;;;3.43;3.13;;;22.70;47.10;;;;;;5031240;28;20428;-45
2022/08/13 06:22:48;;;;;;;3.20;2.97;;;22.80;46.30;;;;;;5031628;28;20933;-45
2022/08/13 06:25:15;;;;;;;4.33;2.93;;;22.90;45.60;;;;;;5031275;28;20416;-48
2022/08/13 06:27:42;;;;;;;3.37;3.10;;;23.10;45.40;;;;;;5031019;28;20424;-45
2022/08/13 06:30:09;;;;;;;3.57;3.27;;;23.30;45.20;;;;;;5030501;28;20542;-49
2022/08/13 06:32:36;;;;;;;3.10;2.90;;;23.40;45.10;;;;;;5031456;28;20982;-44
2022/08/13 06:35:06;;;;;;;3.53;3.23;;;23.50;45.10;;;;;;5030806;28;20438;-45
2022/08/13 06:37:32;;;;;;;5.40;2.97;;;23.70;45.30;;;;;;5031475;28;20515;-46
2022/08/13 06:40:00;;;;;;;3.50;3.20;;;23.90;44.90;;;;;;5030588;28;20455;-49
2022/08/13 06:42:28;;;;;;;3.43;3.17;;;24.10;44.70;;;;;;5029536;28;20797;-45
2022/08/13 06:44:54;;;;;;;2.80;2.60;;;24.20;44.60;;;;;;5030338;28;20428;-49
2022/08/13 06:47:23;;;;;;;3.10;3.00;;;24.30;44.40;;;;;;5031267;28;20447;-45
2022/08/13 06:49:49;;;;;;;3.70;3.40;;;24.40;44.10;;;;;;5030141;28;20486;-45
2022/08/13 06:52:15;;;;;;;3.20;3.00;;;24.60;43.90;;;;;;5031257;28;20484;-46
2022/08/13 06:54:40;;;;;;;3.30;3.00;;;24.80;43.60;;;;;;5030709;28;20282;-44
2022/08/13 06:57:08;;;;;;;3.50;3.27;;;24.90;43.30;;;;;;5031307;28;20535;-45
2022/08/13 06:59:36;;;;;;;4.47;3.23;;;25.10;43.20;;;;;;5029817;28;20251;-45
2022/08/13 07:02:03;;;;;;;2.90;2.70;;;25.20;42.90;;;;;;5029485;28;20546;-47
2022/08/13 07:04:29;;;;;;;3.30;3.10;;;25.50;42.70;;;;;;5030392;28;20428;-45
2022/08/13 07:06:55;;;;;;;3.83;2.60;;;25.70;42.10;;;;;;5031011;28;20435;-46
2022/08/13 07:09:22;;;;;;;3.43;3.13;;;25.80;42.10;;;;;;5028209;28;20649;-45
2022/08/13 07:11:48;;;;;;;3.43;3.13;;;25.90;41.70;;;;;;5030828;28;20821;-45
2022/08/13 07:14:15;;;;;;;4.00;3.60;;;26.10;41.40;;;;;;5030419;28;20481;-46
2022/08/13 07:16:44;;;;;;;3.50;3.20;;;26.10;41.40;;;;;;5030937;28;20653;-46
2022/08/13 07:19:14;;;;;;;3.30;3.00;;;26.20;41.10;;;;;;5029764;28;20440;-46
2022/08/13 07:21:42;;;;;;;3.70;3.40;;;26.40;41.10;;;;;;5030900;28;20425;-46
2022/08/13 07:24:09;;;;;;;3.60;3.30;;;26.50;40.70;;;;;;5029014;28;20443;-46
2022/08/13 07:26:36;;;;;;;3.53;3.33;;;26.60;40.30;;;;;;5030923;28;20428;-46
2022/08/13 07:29:05;;;;;;;3.37;3.07;;;26.80;40.00;;;;;;5029666;28;20439;-46
2022/08/13 07:31:33;;;;;;;4.43;3.30;;;26.90;40.10;;;;;;5030677;28;20577;-46
2022/08/13 07:34:04;;;;;;;3.47;3.17;;;27.10;39.60;;;;;;5030092;28;20428;-45
2022/08/13 07:36:35;;;;;;;3.30;3.10;;;27.30;39.30;;;;;;5028947;28;20447;-46
2022/08/13 07:39:05;;;;;;;3.00;2.80;;;27.30;39.40;;;;;;5029938;28;20451;-46
2022/08/13 07:41:32;;;;;;;3.60;3.03;;;27.40;39.00;;;;;;5030671;28;20928;-47
2022/08/13 07:43:59;;;;;;;4.47;3.17;;;27.50;38.70;;;;;;5030254;28;20461;-45
2022/08/13 07:46:25;;;;;;;4.80;2.97;;;27.70;38.50;;;;;;5030561;28;20435;-46
2022/08/13 07:48:51;;;;;;;2.70;2.50;;;27.90;38.10;;;;;;5029890;28;20440;-46
2022/08/13 07:51:21;;;;;;;2.80;2.60;;;28.00;37.60;;;;;;5030419;28;20233;-46
2022/08/13 07:53:54;;;;;;;4.40;2.80;;;28.20;37.50;;;;;;5029924;28;20452;-48
2022/08/13 07:56:28;;;;;;;3.20;2.90;;;28.20;37.30;;;;;;5030638;28;20439;-48
2022/08/13 07:59:00;;;;;;;3.43;3.10;;;28.40;37.00;;;;;;5029646;28;20926;-45
2022/08/13 08:01:27;;;;;;;3.10;2.90;;;28.40;36.90;;;;;;5028930;28;20435;-45
2022/08/13 08:03:56;;;;;;;2.23;2.03;;;28.60;36.90;;;;;;5033723;28;20975;-46
2022/08/13 08:06:22;;;;;;;3.53;3.33;;;28.70;36.70;;;;;;5034228;28;21049;-45
2022/08/13 08:08:53;;;;;;;3.00;2.80;;;28.90;36.30;;;;;;5033338;28;20435;-48
2022/08/13 08:14:04;;;;;;;3.80;3.20;;;29.20;35.80;;;;;;5033661;28;20431;-47
2022/08/13 08:16:31;;;;;;;4.43;3.07;;;29.30;35.50;;;;;;5034026;28;20891;-45
2022/08/13 08:19:00;;;;;;;3.23;2.93;;;29.40;35.50;;;;;;5032741;28;20280;-49
2022/08/13 08:21:28;;;;;;;3.43;2.50;;;29.50;35.40;;;;;;5034009;28;20438;-45
2022/08/13 08:23:59;;;;;;;4.80;2.73;;;29.60;35.60;;;;;;5033158;28;20943;-45
2022/08/13 08:26:27;;;;;;;4.17;2.70;;;29.70;35.00;;;;;;5033563;28;20432;-50
2022/08/13 08:28:56;;;;;;;2.80;2.60;;;30.00;35.00;;;;;;5031508;28;20443;-46
2022/08/13 08:31:23;;;;;;;2.70;2.60;;;29.80;34.40;;;;;;5033596;28;20522;-46
2022/08/13 08:33:50;;;;;;;3.00;2.80;;;29.70;34.70;;;;;;5033191;28;20436;-45
2022/08/13 08:36:16;;;;;;;3.00;2.80;;;29.80;34.40;;;;;;5033753;28;20431;-46
2022/08/13 08:44:20;;;;;;;3.27;2.53;;;29.40;35.10;;;;;;5033196;28;20439;-45
2022/08/13 08:46:47;;;;;;;3.13;2.77;;;29.20;35.60;;;;;;5033194;28;20912;-45
2022/08/13 08:49:15;;;;;;;2.70;2.50;;;29.30;35.30;;;;;;5032724;28;20424;-48
2022/08/13 08:51:42;;;;;;;3.27;2.97;;;29.50;35.30;;;;;;5033268;28;20479;-46
2022/08/13 08:54:08;;;;;;;2.70;2.50;;;29.60;35.30;;;;;;5032885;28;20432;-45
2022/08/13 08:56:34;;;;;;;2.50;2.40;;;29.70;34.60;;;;;;5031531;28;20428;-46
2022/08/13 08:59:01;;;;;;;2.50;2.40;;;29.70;34.60;;;;;;5032260;28;20523;-45
2022/08/13 09:01:27;;;;;;;2.50;2.30;;;29.80;34.40;;;;;;5033039;28;20522;-47
2022/08/13 09:03:56;;;;;;;3.30;3.00;;;30.00;34.10;;;;;;5032651;28;20451;-46
2022/08/13 09:06:23;;;;;;;3.70;3.07;;;30.10;33.90;;;;;;5032916;28;20485;-46
2022/08/13 09:08:52;;;;;;;2.53;2.33;;;30.30;33.50;;;;;;5032015;28;20567;-46
2022/08/13 09:11:19;;;;;;;3.37;2.33;;;30.40;33.40;;;;;;5033170;28;20533;-45
2022/08/13 09:13:49;;;;;;;2.23;2.13;;;30.40;33.20;;;;;;5031181;28;20440;-45
2022/08/13 09:16:16;;;;;;;2.87;2.67;;;30.50;32.80;;;;;;5033037;28;20427;-45
2022/08/13 09:18:43;;;;;;;2.63;2.43;;;30.40;32.10;;;;;;5031796;28;20447;-48
2022/08/13 09:21:09;;;;;;;2.50;2.30;;;30.50;32.40;;;;;;5031736;28;20424;-47
2022/08/13 09:23:34;;;;;;;2.57;2.47;;;30.70;32.70;;;;;;5031621;28;20435;-45
2022/08/13 09:26:04;;;;;;;2.90;2.23;;;30.00;33.20;;;;;;5032694;28;20201;-45
2022/08/13 09:28:31;;;;;;;3.40;2.40;;;30.00;33.20;;;;;;5032073;28;20230;-46
2022/08/13 09:30:57;;;;;;;2.43;2.33;;;30.20;33.00;;;;;;5032190;28;20479;-46
2022/08/13 09:33:28;;;;;;;2.57;2.37;;;30.50;32.00;;;;;;5032469;28;20435;-45
2022/08/13 09:35:54;;;;;;;4.20;2.10;;;30.70;32.30;;;;;;5032253;28;20770;-48
2022/08/13 09:38:21;;;;;;;2.60;2.40;;;30.90;30.90;;;;;;5031853;28;20479;-47
2022/08/13 09:41:23;;;;;;;2.40;2.20;;;31.30;29.80;;;;;;5031668;28;20440;-47
2022/08/13 09:43:49;;;;;;;2.23;2.13;;;31.60;29.60;;;;;;5031789;28;20454;-45
2022/08/13 09:46:16;;;;;;;2.47;2.27;;;31.70;29.40;;;;;;5032521;28;20424;-45
2022/08/13 09:48:43;;;;;;;2.23;2.00;;;32.00;29.40;;;;;;5029597;28;20201;-46
2022/08/13 09:51:13;;;;;;;5.50;2.63;;;32.30;29.20;;;;;;5031870;28;20494;-45
2022/08/13 09:53:46;;;;;;;2.30;1.97;;;32.60;28.90;;;;;;5031763;28;20459;-46
2022/08/13 09:56:17;;;;;;;2.37;2.17;;;32.40;28.50;;;;;;5032010;28;20428;-46
2022/08/13 09:58:50;;;;;;;2.40;2.13;;;32.00;29.30;;;;;;5031134;28;20447;-46
2022/08/13 10:01:19;;;;;;;2.60;2.40;;;31.70;29.60;;;;;;5031796;28;20852;-46
2022/08/13 10:03:48;;;;;;;2.10;1.90;;;31.50;29.70;;;;;;5031593;28;20432;-46
2022/08/13 10:06:16;;;;;;;2.60;2.40;;;31.70;29.40;;;;;;5031889;28;20901;-46
2022/08/13 10:08:41;;;;;;;2.17;2.07;;;31.90;29.10;;;;;;5031302;28;20428;-46
2022/08/13 10:11:07;;;;;;;2.27;2.17;;;31.80;28.70;;;;;;5031821;28;20491;-47
2022/08/13 10:13:33;;;;;;;2.60;2.40;;;32.00;28.70;;;;;;5031563;28;20268;-46
2022/08/13 10:15:59;;;;;;;2.17;1.90;;;32.20;28.30;;;;;;5030070;28;20604;-46
2022/08/13 10:18:27;;;;;;;2.07;1.87;;;32.30;28.00;;;;;;5031435;28;20280;-46
2022/08/13 10:20:52;;;;;;;2.40;2.30;;;32.60;27.90;;;;;;5030881;28;20436;-48
2022/08/13 10:23:18;;;;;;;2.40;2.27;;;32.60;28.00;;;;;;5031966;28;20495;-48
2022/08/13 10:25:46;;;;;;;3.70;2.13;;;32.80;27.60;;;;;;5030697;28;20212;-46
2022/08/13 10:28:20;;;;;;;6.47;2.30;;;32.80;26.90;;;;;;5031144;28;20232;-46
2022/08/13 10:30:46;;;;;;;1.77;1.67;;;32.30;27.00;;;;;;5030953;28;20513;-45
2022/08/13 10:33:12;;;;;;;3.30;3.00;;;32.20;27.20;;;;;;5031176;28;20575;-48
2022/08/13 10:35:39;;;;;;;5.07;2.20;;;32.20;27.00;;;;;;5030807;28;20420;-48
2022/08/13 10:38:07;;;;;;;3.03;1.90;;;32.00;26.90;;;;;;5029735;28;20476;-47
2022/08/13 10:40:33;;;;;;;3.30;2.17;;;32.20;26.90;;;;;;5030909;28;20459;-49
2022/08/13 10:42:58;;;;;;;2.57;2.37;;;32.40;27.50;;;;;;5029842;28;20814;-47
2022/08/13 10:45:24;;;;;;;1.97;1.87;;;32.40;26.90;;;;;;5030337;28;20200;-48
2022/08/13 10:47:54;;;;;;;2.23;1.70;;;32.60;26.40;;;;;;5030874;28;20185;-47
2022/08/13 10:50:26;;;;;;;2.47;2.07;;;33.10;25.70;;;;;;5030504;28;20547;-46
2022/08/13 10:52:52;;;;;;;2.17;2.00;;;33.40;25.60;;;;;;5031096;28;20564;-46
2022/08/13 10:55:17;;;;;;;2.10;1.67;;;33.90;25.80;;;;;;5030680;28;20475;-46
2022/08/13 10:57:45;;;;;;;2.67;1.80;;;34.30;25.60;;;;;;5030908;28;20664;-48
2022/08/13 11:00:14;;;;;;;2.90;2.10;;;34.60;24.60;;;;;;5030734;28;20192;-46
2022/08/13 11:02:40;;;;;;;3.00;1.97;;;34.50;24.10;;;;;;5030919;28;20436;-46
2022/08/13 11:05:07;;;;;;;2.20;2.10;;;34.70;24.10;;;;;;5030416;28;20424;-46
2022/08/13 11:07:34;;;;;;;2.40;2.20;;;34.80;24.10;;;;;;5030712;28;20423;-49
2022/08/13 11:10:01;;;;;;;2.23;1.60;;;34.40;23.90;;;;;;5027572;28;20443;-46
2022/08/13 11:12:26;;;;;;;2.40;1.67;;;34.00;24.60;;;;;;5029191;28;21050;-47
2022/08/13 11:14:53;;;;;;;2.50;2.33;;;34.30;24.80;;;;;;5030419;28;20535;-47
2022/08/13 11:17:19;;;;;;;2.70;2.50;;;34.80;24.70;;;;;;5030834;28;20193;-48
2022/08/13 11:19:46;;;;;;;2.07;1.87;;;35.20;24.50;;;;;;5029676;28;20440;-46
2022/08/13 11:22:12;;;;;;;2.30;2.10;;;35.40;23.70;;;;;;5030682;28;20436;-46
2022/08/13 11:24:38;;;;;;;3.50;1.97;;;35.60;23.70;;;;;;5030233;28;20493;-47
2022/08/13 11:27:05;;;;;;;2.27;2.17;;;35.20;23.30;;;;;;5030574;28;20200;-48
2022/08/13 11:29:30;;;;;;;2.10;2.00;;;35.10;23.40;;;;;;5029758;28;20193;-46
2022/08/13 11:31:57;;;;;;;2.43;2.17;;;35.40;23.40;;;;;;5030456;28;20588;-46
2022/08/13 11:34:25;;;;;;;2.17;2.07;;;35.60;23.50;;;;;;5030272;28;20204;-47
2022/08/13 11:36:51;;;;;;;2.30;2.10;;;35.30;23.70;;;;;;5030138;28;20789;-47
2022/08/13 11:39:17;;;;;;;2.20;2.00;;;35.80;23.50;;;;;;5034167;28;20428;-50
2022/08/13 11:41:43;;;;;;;2.10;2.00;;;35.80;23.00;;;;;;5034474;28;20481;-51
2022/08/13 11:44:08;;;;;;;1.70;1.60;;;36.20;23.00;;;;;;5034141;28;20599;-50
2022/08/13 11:46:34;;;;;;;2.37;1.93;;;36.50;22.50;;;;;;5034599;28;20275;-51
2022/08/13 11:48:59;;;;;;;2.47;2.20;;;36.60;22.50;;;;;;5033818;28;20189;-51
2022/08/13 11:51:25;;;;;;;2.60;2.50;;;37.00;22.20;;;;;;5034327;28;20231;-50
2022/08/13 11:53:51;;;;;;;2.80;2.30;;;37.10;21.80;;;;;;5033707;28;20216;-48
2022/08/13 11:56:16;;;;;;;2.63;2.43;;;37.10;22.20;;;;;;5034425;28;20200;-49
2022/08/13 11:58:42;;;;;;;3.53;2.20;;;37.30;21.80;;;;;;5034105;28;20185;-51
2022/08/13 12:01:08;;;;;;;1.80;1.70;;;37.10;21.70;;;;;;5034287;28;20196;-51
2022/08/13 12:03:39;;;;;;;2.37;2.27;;;37.10;22.00;;;;;;5032403;28;20674;-48
2022/08/13 12:06:05;;;;;;;2.37;2.10;;;36.90;21.50;;;;;;5034214;28;20262;-51
2022/08/13 12:08:31;;;;;;;3.03;1.83;;;36.70;21.90;;;;;;5033581;28;20432;-51
2022/08/13 12:10:57;;;;;;;2.40;2.20;;;36.20;21.50;;;;;;5033723;28;20475;-50
2022/08/13 12:13:23;;;;;;;2.03;1.83;;;35.50;22.10;;;;;;5034017;28;20197;-51
2022/08/13 12:15:49;;;;;;;1.93;1.83;;;35.30;22.60;;;;;;5033468;28;20778;-50
2022/08/13 12:18:17;;;;;;;2.07;1.97;;;35.70;22.80;;;;;;5033717;28;20431;-49
2022/08/13 12:20:44;;;;;;;2.50;2.40;;;35.90;21.70;;;;;;5033602;28;20267;-51
2022/08/13 12:23:09;;;;;;;3.37;2.13;;;36.10;22.10;;;;;;5033998;28;20501;-51
2022/08/13 12:25:36;;;;;;;2.40;2.23;;;36.10;21.70;;;;;;5033310;28;20830;-51
2022/08/13 12:28:23;;;;;;;2.00;1.90;;;36.10;21.80;;;;;;5032769;28;20809;-48
2022/08/13 12:30:51;;;;;;;2.00;1.90;;;36.40;21.20;;;;;;5033057;28;20933;-47
2022/08/13 12:33:18;;;;;;;2.73;1.90;;;36.30;21.20;;;;;;5033899;28;20428;-46
2022/08/13 12:35:44;;;;;;;2.87;2.30;;;36.30;21.00;;;;;;5033199;28;20435;-51
2022/08/13 12:38:12;;;;;;;2.20;2.10;;;36.20;21.10;;;;;;5033168;28;20499;-46
2022/08/13 12:40:39;;;;;;;2.77;2.13;;;36.40;20.80;;;;;;5032984;28;20438;-51
2022/08/13 12:43:05;;;;;;;3.67;2.00;;;36.20;21.20;;;;;;5033192;28;21140;-47
2022/08/13 12:45:31;;;;;;;1.90;1.80;;;36.40;21.70;;;;;;5032985;28;20459;-47
2022/08/13 12:48:07;;;;;;;2.00;1.90;;;36.50;21.90;;;;;;5032759;28;20490;-47
2022/08/13 12:50:35;;;;;;;2.43;2.23;;;36.50;21.20;;;;;;5032816;28;20537;-47
2022/08/13 12:53:01;;;;;;;2.70;2.20;;;36.00;20.80;;;;;;5033271;28;20432;-47
2022/08/13 12:55:27;;;;;;;1.97;1.87;;;35.90;21.60;;;;;;5031012;28;20489;-46
2022/08/13 12:57:55;;;;;;;2.13;1.90;;;36.10;21.40;;;;;;5032885;28;20201;-49
2022/08/13 13:00:21;;;;;;;2.03;1.93;;;36.10;21.40;;;;;;5031254;28;20440;-47
2022/08/13 13:02:47;;;;;;;2.60;2.40;;;36.50;21.10;;;;;;5033079;28;20599;-49
2022/08/13 13:05:14;;;;;;;2.07;1.97;;;36.90;21.30;;;;;;5032408;28;20438;-47
2022/08/13 13:07:41;;;;;;;2.20;2.00;;;36.10;20.90;;;;;;5032615;28;20951;-48
2022/08/13 13:10:09;;;;;;;2.70;2.00;;;36.00;21.50;;;;;;5032701;28;20428;-47